Time;durP1;ratioP1;P1;durP2;ratioP2;P2;SDS_P1;SDS_P2;PMS_P1;PMS_P2;Temp;Humidity;BMP_temperature;BMP_pressure;BME280_temperature;BME280_humidity;BME280_pressure;Samples;Min_cycle;Max_cycle;Signal;HPM_P1;HPM_P2
2023/04/12 00:02:20;;;;;;;5.23;2.97;;;8.90;74.40;;;11.45;52.63;100814.38;5037990;28;20214;-61
2023/04/12 00:04:54;;;;;;;2.73;2.10;;;8.90;74.40;;;11.42;52.81;100815.56;5036896;28;20554;-64
2023/04/12 00:07:22;;;;;;;8.40;2.90;;;8.90;74.10;;;11.42;52.59;100799.75;5037064;28;20183;-65
2023/04/12 00:09:49;;;;;;;5.37;4.57;;;8.90;74.00;;;11.36;52.59;100799.66;5037601;28;20570;-63
2023/04/12 00:12:18;;;;;;;7.30;5.33;;;8.90;73.50;;;11.29;52.32;100783.69;5037152;28;20226;-61
2023/04/12 00:14:46;;;;;;;9.27;7.57;;;8.90;73.50;;;11.21;52.48;100785.59;5037558;28;20210;-64
2023/04/12 00:17:13;;;;;;;8.40;6.17;;;8.80;73.30;;;11.13;52.98;100788.28;5036337;28;20644;-64
2023/04/12 00:19:41;;;;;;;6.17;4.60;;;8.80;73.30;;;11.10;52.64;100784.19;5037323;28;20659;-61
2023/04/12 00:22:09;;;;;;;7.20;4.53;;;8.80;73.50;;;11.03;52.79;100783.25;5037611;28;20198;-62
2023/04/12 00:24:41;;;;;;;7.20;3.50;;;8.70;73.60;;;10.98;52.88;100769.00;5035684;28;20218;-63
2023/04/12 00:27:08;;;;;;;4.43;2.90;;;8.70;74.50;;;10.92;53.17;100772.31;5037433;28;20261;-65
2023/04/12 00:29:35;;;;;;;5.23;2.63;;;8.60;73.70;;;10.84;52.97;100758.22;5037292;28;20182;-62
2023/04/12 00:32:04;;;;;;;7.27;2.90;;;8.60;73.80;;;10.82;53.28;100744.41;5037535;28;20301;-61
2023/04/12 00:34:31;;;;;;;6.10;2.40;;;8.60;73.90;;;10.87;52.79;100736.81;5037561;28;20234;-62
2023/04/12 00:36:59;;;;;;;5.03;2.63;;;8.50;73.80;;;10.89;53.24;100737.44;5037548;28;20190;-62
2023/04/12 00:39:26;;;;;;;4.90;2.37;;;8.50;73.80;;;10.92;52.67;100740.72;5037726;28;20206;-63
2023/04/12 00:41:55;;;;;;;3.33;2.10;;;8.50;73.70;;;10.87;53.19;100726.28;5037028;28;20190;-63
2023/04/12 00:44:22;;;;;;;3.07;2.17;;;8.50;73.70;;;10.81;52.66;100718.28;5036199;28;20210;-64
2023/04/12 00:46:50;;;;;;;2.83;2.40;;;8.50;73.30;;;10.84;53.02;100724.00;5036649;28;20202;-61
2023/04/12 00:49:17;;;;;;;3.80;2.33;;;8.50;73.40;;;10.83;52.62;100711.84;5036590;28;20198;-62
2023/04/12 00:51:44;;;;;;;4.63;2.40;;;8.50;73.20;;;10.79;52.98;100702.63;5036808;28;20209;-61
2023/04/12 00:54:16;;;;;;;2.30;2.10;;;8.50;73.00;;;10.71;52.35;100694.81;5035926;28;20264;-61
2023/04/12 00:56:46;;;;;;;5.30;1.90;;;8.50;72.90;;;10.76;52.45;100692.47;5037109;28;20187;-62
2023/04/12 00:59:13;;;;;;;3.63;2.20;;;8.50;72.90;;;10.79;52.36;100692.09;5036591;28;20201;-63
2023/04/12 01:01:40;;;;;;;4.10;1.80;;;8.50;72.80;;;10.81;51.87;100679.63;5034969;28;20209;-64
2023/04/12 01:04:08;;;;;;;5.07;2.30;;;8.40;72.70;;;10.78;52.20;100676.50;5035841;28;20214;-62
2023/04/12 01:07:02;;;;;;;3.10;2.17;;;8.50;72.70;;;10.74;52.57;100672.59;5034933;28;20214;-60
2023/04/12 01:09:51;;;;;;;6.93;2.17;;;8.50;72.60;;;10.81;51.92;100668.25;5047504;28;20188;-63
2023/04/12 01:12:32;;;;;;;5.93;2.10;;;8.50;72.60;;;10.82;51.94;100661.97;5036146;28;20217;-62
2023/04/12 01:15:06;;;;;;;6.30;2.20;;;8.50;72.60;;;10.71;52.84;100657.97;5035731;28;20218;-62
2023/04/12 01:17:44;;;;;;;2.80;2.00;;;8.50;72.60;;;10.66;52.89;100655.03;5035852;28;20210;-62
2023/04/12 01:20:18;;;;;;;6.00;2.30;;;8.50;72.90;;;10.69;52.85;100651.25;5035929;28;20197;-60
2023/04/12 01:23:11;;;;;;;4.60;2.43;;;8.50;73.00;;;10.63;53.49;100649.31;5035755;28;20175;-62
2023/04/12 01:26:02;;;;;;;4.43;2.40;;;8.50;73.20;;;10.61;53.66;100641.59;5034419;28;20675;-62
2023/04/12 01:28:36;;;;;;;6.03;2.47;;;8.50;73.20;;;10.68;53.04;100639.91;5015751;28;20202;-62
2023/04/12 01:31:07;;;;;;;6.67;2.50;;;8.50;73.20;;;10.70;53.47;100632.63;5015892;28;20191;-63
2023/04/12 01:33:39;;;;;;;4.40;2.00;;;8.50;73.10;;;10.72;53.04;100614.03;5015276;28;20227;-65
2023/04/12 01:36:14;;;;;;;4.97;2.17;;;8.50;72.90;;;10.69;52.78;100615.22;5016034;28;20183;-64
2023/04/12 01:38:42;;;;;;;5.00;2.40;;;8.50;72.60;;;10.67;52.91;100613.75;5015442;28;20551;-62
2023/04/12 01:41:09;;;;;;;4.57;2.27;;;8.50;72.50;;;10.67;52.34;100608.50;5015987;28;20645;-62
2023/04/12 01:43:42;;;;;;;3.60;2.40;;;8.50;72.30;;;10.72;52.17;100611.41;5025804;28;20205;-62
2023/04/12 01:46:10;;;;;;;3.10;2.60;;;8.60;72.40;;;10.78;52.66;100600.97;5050973;28;20205;-61
2023/04/12 01:48:38;;;;;;;5.20;2.80;;;8.60;72.20;;;10.85;52.00;100596.63;5035464;28;20261;-63
2023/04/12 01:51:13;;;;;;;3.53;2.17;;;8.60;72.20;;;10.92;52.25;100590.63;5035779;28;20526;-63
2023/04/12 01:53:53;;;;;;;5.07;2.90;;;8.60;72.10;;;10.97;52.01;100583.84;5034878;28;20202;-64
2023/04/12 01:56:23;;;;;;;6.10;2.20;;;8.60;72.10;;;11.00;51.50;100577.41;5035278;28;20182;-63
2023/04/12 01:58:54;;;;;;;4.67;2.10;;;8.70;72.00;;;10.97;51.89;100575.13;5035049;28;20195;-62
2023/04/12 02:01:22;;;;;;;4.70;2.33;;;8.70;71.90;;;10.97;51.73;100570.66;5035219;28;20209;-60
2023/04/12 02:03:51;;;;;;;4.27;2.13;;;8.70;71.80;;;10.91;51.76;100573.22;5034606;28;20218;-63
2023/04/12 02:06:21;;;;;;;3.33;2.57;;;8.70;71.80;;;10.90;52.20;100567.13;5035009;28;20209;-61
2023/04/12 02:08:49;;;;;;;4.33;2.90;;;8.70;71.80;;;11.01;51.91;100561.41;5035503;28;20190;-63
2023/04/12 02:11:16;;;;;;;4.93;2.67;;;8.70;71.90;;;11.01;51.85;100552.69;5036896;28;20205;-62
2023/04/12 02:13:43;;;;;;;2.50;2.30;;;8.70;72.00;;;11.01;51.44;100553.50;5036771;28;20215;-61
2023/04/12 02:16:13;;;;;;;5.03;3.23;;;8.70;71.90;;;10.97;52.31;100552.25;5036942;28;20209;-64
2023/04/12 02:18:41;;;;;;;4.33;3.10;;;8.70;72.10;;;10.89;52.28;100539.16;5035762;28;20305;-64
2023/04/12 02:21:08;;;;;;;6.83;2.30;;;8.60;72.10;;;10.87;52.36;100536.72;5034507;28;20210;-61
2023/04/12 02:23:35;;;;;;;3.57;2.43;;;8.60;72.20;;;10.83;52.17;100524.91;5035196;28;20198;-62
2023/04/12 02:26:02;;;;;;;6.37;2.60;;;8.60;72.30;;;10.88;52.40;100527.81;5033180;28;20205;-63
2023/04/12 02:28:29;;;;;;;8.33;2.50;;;8.60;72.30;;;10.79;52.22;100518.34;5033997;28;20677;-62
2023/04/12 02:30:56;;;;;;;5.60;2.63;;;8.60;72.30;;;10.77;52.51;100509.00;5033950;28;20194;-63
2023/04/12 02:33:27;;;;;;;5.83;2.67;;;8.60;72.30;;;10.68;52.92;100510.94;5034047;28;20222;-62
2023/04/12 02:35:56;;;;;;;6.37;2.80;;;8.50;72.30;;;10.62;52.36;100505.56;5034602;28;20273;-63
2023/04/12 02:38:23;;;;;;;5.00;2.70;;;8.50;72.30;;;10.66;52.32;100502.41;5035768;28;20195;-61
2023/04/12 02:40:50;;;;;;;5.50;2.60;;;8.50;72.30;;;10.68;52.31;100499.56;5033538;28;20579;-63
2023/04/12 02:43:17;;;;;;;3.60;2.27;;;8.50;72.20;;;10.70;52.81;100482.59;5034172;28;20551;-63
2023/04/12 02:45:44;;;;;;;4.17;2.40;;;8.50;72.20;;;10.70;52.04;100472.06;5034075;28;20233;-62
2023/04/12 02:48:11;;;;;;;5.13;2.53;;;8.50;72.20;;;10.69;52.13;100475.72;5034980;28;20648;-61
2023/04/12 02:50:39;;;;;;;4.53;2.43;;;8.50;72.20;;;10.69;52.17;100462.56;5034783;28;20194;-63
2023/04/12 02:53:06;;;;;;;5.07;2.40;;;8.50;72.20;;;10.66;52.02;100447.13;5034116;28;20221;-61
2023/04/12 02:55:35;;;;;;;3.40;2.33;;;8.50;72.20;;;10.63;52.18;100439.59;5034133;28;20567;-63
2023/04/12 02:58:02;;;;;;;5.73;2.67;;;8.50;72.30;;;10.66;52.62;100428.69;5034030;28;20199;-64
2023/04/12 03:00:29;;;;;;;5.03;2.80;;;8.50;72.20;;;10.74;52.37;100425.97;5034431;28;20197;-62
2023/04/12 03:02:57;;;;;;;9.30;2.80;;;8.50;72.30;;;10.65;52.66;100421.78;5034192;28;20210;-62
2023/04/12 03:05:26;;;;;;;4.67;2.70;;;8.50;72.20;;;10.55;51.99;100418.66;5049187;28;20242;-65
2023/04/12 03:07:55;;;;;;;4.20;2.63;;;8.40;72.10;;;10.50;53.08;100414.91;5034328;28;20190;-61
2023/04/12 03:10:22;;;;;;;4.60;2.37;;;8.40;72.30;;;10.53;52.41;100407.47;5033766;28;20245;-66
2023/04/12 03:12:49;;;;;;;4.80;2.73;;;8.40;72.40;;;10.59;52.27;100406.75;5033668;28;20297;-63
2023/04/12 03:15:16;;;;;;;6.47;2.50;;;8.40;72.50;;;10.55;52.61;100397.59;5033486;28;20651;-61
2023/04/12 03:17:43;;;;;;;3.23;2.63;;;8.30;72.50;;;10.51;53.03;100398.94;5034215;28;20226;-62
2023/04/12 03:20:12;;;;;;;4.17;2.50;;;8.40;72.70;;;10.52;52.61;100390.06;5034719;28;20194;-61
2023/04/12 03:22:39;;;;;;;5.23;2.73;;;8.30;72.70;;;10.48;53.40;100385.34;5034369;28;20194;-62
2023/04/12 03:25:09;;;;;;;4.00;2.10;;;8.30;73.50;;;10.53;52.80;100386.41;5032996;28;20321;-65
2023/04/12 03:27:36;;;;;;;4.33;2.53;;;8.40;72.90;;;10.56;52.82;100374.72;5033950;28;20648;-62
2023/04/12 03:30:05;;;;;;;4.23;2.90;;;8.40;72.80;;;10.42;53.02;100372.91;5035011;28;20719;-61
2023/04/12 03:32:32;;;;;;;4.47;2.90;;;8.30;72.80;;;10.41;52.82;100364.19;5038172;28;20217;-64
2023/04/12 03:34:59;;;;;;;6.53;2.90;;;8.30;72.90;;;10.35;53.32;100354.41;5036358;28;20222;-63
2023/04/12 03:37:26;;;;;;;6.40;3.20;;;8.30;73.10;;;10.34;53.47;100354.59;5037861;28;20474;-63
2023/04/12 03:39:53;;;;;;;4.30;2.70;;;8.20;73.20;;;10.36;53.69;100350.78;5038034;28;20204;-63
2023/04/12 03:42:22;;;;;;;4.40;2.97;;;8.30;73.30;;;10.36;53.62;100348.16;5037704;28;20547;-63
2023/04/12 03:45:00;;;;;;;5.70;3.13;;;8.20;73.20;;;10.46;53.15;100346.03;5037449;28;20221;-61
2023/04/12 03:47:27;;;;;;;6.67;3.00;;;8.30;73.30;;;10.54;53.12;100343.31;5038506;28;20205;-65
2023/04/12 03:49:55;;;;;;;3.33;2.43;;;8.30;73.30;;;10.62;53.11;100337.16;5053315;28;20225;-63
2023/04/12 03:52:37;;;;;;;6.53;2.93;;;8.30;73.20;;;10.57;52.99;100336.88;5038121;28;20210;-63
2023/04/12 03:55:06;;;;;;;5.90;2.77;;;8.30;73.10;;;10.48;53.25;100330.91;5026664;28;20219;-62
2023/04/12 03:57:35;;;;;;;5.13;2.87;;;8.30;73.20;;;10.49;53.45;100327.28;5037748;28;20190;-64
2023/04/12 04:00:04;;;;;;;4.20;2.80;;;8.30;73.30;;;10.47;53.64;100324.00;5037527;28;20294;-62
2023/04/12 04:02:32;;;;;;;7.27;3.07;;;8.30;73.30;;;10.41;53.08;100319.47;5037744;28;20194;-62
2023/04/12 04:05:01;;;;;;;6.00;2.90;;;8.20;73.20;;;10.39;53.30;100326.72;5036970;28;20207;-61
2023/04/12 04:07:28;;;;;;;3.53;2.90;;;8.20;73.40;;;10.52;53.02;100321.66;5036444;28;20206;-61
2023/04/12 04:09:55;;;;;;;4.43;3.03;;;8.20;73.50;;;10.64;52.95;100330.69;5036822;28;20199;-63
2023/04/12 04:12:22;;;;;;;4.60;2.97;;;8.30;73.60;;;10.74;52.84;100319.88;5037740;28;20193;-66
2023/04/12 04:14:51;;;;;;;4.47;2.70;;;8.30;73.50;;;10.72;52.52;100312.16;5037226;28;20733;-64
2023/04/12 04:17:18;;;;;;;6.43;3.13;;;8.30;73.60;;;10.70;52.50;100292.28;5038514;28;20186;-62
2023/04/12 04:19:45;;;;;;;4.63;2.70;;;8.30;73.40;;;10.69;52.51;100296.75;5038969;28;20260;-63
2023/04/12 04:22:12;;;;;;;5.30;3.13;;;8.30;73.30;;;10.65;52.66;100287.56;5038631;28;20276;-62
2023/04/12 04:24:39;;;;;;;4.83;3.17;;;8.30;73.30;;;10.67;52.41;100277.66;5037426;28;20222;-64
2023/04/12 04:27:06;;;;;;;5.43;3.00;;;8.30;73.20;;;10.53;52.70;100286.44;5038323;28;20274;-63
2023/04/12 04:29:35;;;;;;;4.60;2.53;;;8.20;73.00;;;10.55;52.66;100281.81;5038686;28;20218;-64
2023/04/12 04:32:04;;;;;;;3.80;2.57;;;8.20;73.00;;;10.57;52.54;100277.19;5039254;28;20199;-68
2023/04/12 04:34:31;;;;;;;7.97;3.13;;;8.30;73.10;;;10.62;52.32;100274.81;5053146;28;20261;-62
2023/04/12 04:36:58;;;;;;;3.73;2.63;;;8.20;73.20;;;10.60;52.73;100276.78;5037790;28;20651;-64
2023/04/12 04:39:26;;;;;;;7.20;2.77;;;8.20;73.00;;;10.55;52.80;100273.94;5037675;28;20206;-62
2023/04/12 04:41:53;;;;;;;5.00;2.77;;;8.20;73.00;;;10.50;52.82;100283.38;5036911;28;20190;-64
2023/04/12 04:44:21;;;;;;;5.57;2.90;;;8.20;73.20;;;10.47;52.64;100271.41;5037579;28;20701;-64
2023/04/12 04:46:48;;;;;;;5.57;2.67;;;8.20;73.20;;;10.46;53.15;100277.63;5038189;28;20197;-62
2023/04/12 04:49:16;;;;;;;4.70;2.53;;;8.20;73.20;;;10.44;52.68;100271.75;5038027;28;20191;-63
2023/04/12 04:51:43;;;;;;;8.13;3.17;;;8.10;73.20;;;10.37;52.52;100270.88;5021651;28;20203;-62
2023/04/12 04:54:12;;;;;;;4.73;3.00;;;8.10;73.20;;;10.45;53.06;100262.88;5026863;28;20241;-64
2023/04/12 04:56:39;;;;;;;5.70;3.00;;;8.10;73.20;;;10.45;52.64;100252.34;5038022;28;20191;-64
2023/04/12 04:59:07;;;;;;;4.47;2.80;;;8.10;73.30;;;10.53;52.13;100248.78;5037942;28;20273;-64
2023/04/12 05:01:35;;;;;;;5.10;2.83;;;8.10;73.40;;;10.58;52.32;100247.22;5037288;28;20275;-63
2023/04/12 05:04:02;;;;;;;4.67;2.97;;;8.10;73.00;;;10.52;52.00;100232.19;5037693;28;20265;-62
2023/04/12 05:06:31;;;;;;;7.23;2.80;;;8.10;72.70;;;10.50;52.12;100234.19;5036633;28;20182;-65
2023/04/12 05:09:00;;;;;;;4.00;2.57;;;8.20;72.80;;;10.46;52.39;100227.66;5037777;28;20198;-63
2023/04/12 05:11:27;;;;;;;6.70;2.93;;;8.20;72.60;;;10.52;52.54;100226.09;5052257;28;20186;-60
2023/04/12 05:13:54;;;;;;;5.97;3.07;;;8.20;72.50;;;10.49;52.57;100211.50;5034748;28;20210;-63
2023/04/12 05:16:21;;;;;;;4.93;2.90;;;8.20;72.50;;;10.54;52.28;100211.75;5037065;28;20249;-66
2023/04/12 05:18:48;;;;;;;6.23;3.30;;;8.20;72.40;;;10.54;51.92;100206.50;5037537;28;20285;-64
2023/04/12 05:21:15;;;;;;;3.63;2.80;;;8.20;72.30;;;10.62;52.40;100211.66;5037086;28;20277;-67
2023/04/12 05:23:45;;;;;;;7.70;3.10;;;8.30;72.40;;;10.74;51.89;100207.50;5036552;28;20214;-62
2023/04/12 05:26:13;;;;;;;4.07;2.70;;;8.40;72.40;;;10.83;51.63;100208.19;5036349;28;20202;-66
2023/04/12 05:28:40;;;;;;;5.23;2.80;;;8.40;72.00;;;10.93;51.36;100202.59;5036755;28;20927;-62
2023/04/12 05:31:07;;;;;;;5.60;2.90;;;8.50;71.80;;;11.01;51.19;100197.19;5036774;28;20191;-63
2023/04/12 05:33:35;;;;;;;5.93;2.63;;;8.50;71.40;;;10.96;51.04;100202.22;5035866;28;20282;-64
2023/04/12 05:36:04;;;;;;;3.93;2.93;;;8.60;71.10;;;11.07;50.60;100207.78;5051552;28;20241;-64
2023/04/12 05:38:32;;;;;;;4.83;2.80;;;8.60;71.00;;;11.23;50.67;100198.78;5036729;28;20205;-62
2023/04/12 05:41:04;;;;;;;6.03;2.73;;;8.70;71.00;;;11.32;49.82;100187.91;5035653;28;20674;-65
2023/04/12 05:43:32;;;;;;;6.43;3.33;;;8.80;70.80;;;11.42;49.86;100191.03;5036542;28;20191;-64
2023/04/12 05:45:59;;;;;;;10.47;4.50;;;8.80;70.60;;;11.50;49.77;100184.78;5034558;28;20225;-65
2023/04/12 05:48:26;;;;;;;8.20;3.13;;;8.90;70.40;;;11.48;49.79;100176.25;5016564;28;20192;-66
2023/04/12 05:50:53;;;;;;;4.80;2.67;;;8.90;70.00;;;11.46;50.08;100178.25;5027946;28;20202;-63
2023/04/12 05:53:21;;;;;;;6.43;2.57;;;9.00;70.00;;;11.53;50.21;100179.09;5032620;28;20222;-64
2023/04/12 05:55:48;;;;;;;5.40;3.60;;;9.00;70.00;;;11.59;49.60;100183.63;5035299;28;20251;-62
2023/04/12 05:58:16;;;;;;;8.67;3.43;;;9.10;70.00;;;11.73;49.55;100185.34;5035194;28;20186;-63
2023/04/12 06:00:44;;;;;;;4.40;2.60;;;9.10;70.20;;;11.80;49.69;100177.44;5033572;28;20272;-62
2023/04/12 06:03:11;;;;;;;5.23;2.57;;;9.20;70.00;;;11.84;49.19;100171.59;5035110;28;20194;-66
2023/04/12 06:05:38;;;;;;;4.80;2.63;;;9.30;69.90;;;11.90;49.64;100168.19;5033493;28;20622;-62
2023/04/12 06:08:07;;;;;;;3.57;2.47;;;9.30;69.80;;;11.98;49.40;100167.19;5034144;28;20229;-65
2023/04/12 06:10:35;;;;;;;4.63;2.93;;;9.30;69.60;;;11.89;49.24;100163.91;5036924;28;20198;-63
2023/04/12 06:13:02;;;;;;;2.97;2.27;;;9.30;69.60;;;11.82;49.61;100152.53;5036269;28;20203;-65
2023/04/12 06:15:32;;;;;;;5.83;3.00;;;9.30;69.60;;;11.74;50.09;100152.72;5033454;28;20301;-62
2023/04/12 06:17:59;;;;;;;6.07;2.73;;;9.40;69.90;;;11.64;50.11;100139.03;5035413;28;20199;-64
2023/04/12 06:20:26;;;;;;;7.07;2.77;;;9.30;69.70;;;11.62;50.09;100135.78;5035249;28;20205;-64
2023/04/12 06:22:53;;;;;;;5.23;2.60;;;9.30;69.70;;;11.64;50.02;100133.75;5034615;28;20526;-62
2023/04/12 06:25:21;;;;;;;3.70;2.20;;;9.40;69.80;;;11.58;50.48;100124.00;5032843;28;20217;-63
2023/04/12 06:27:48;;;;;;;5.07;2.30;;;9.40;69.80;;;11.60;50.53;100127.25;5034919;28;20190;-64
2023/04/12 06:30:15;;;;;;;5.50;2.77;;;9.30;69.80;;;11.72;50.61;100120.44;5033571;28;20595;-64
2023/04/12 06:32:44;;;;;;;6.07;3.10;;;9.40;69.90;;;11.69;50.15;100120.84;5034432;28;20682;-64
2023/04/12 06:35:11;;;;;;;4.63;2.97;;;9.40;70.00;;;11.70;50.63;100117.19;5034181;28;20225;-65
2023/04/12 06:37:38;;;;;;;7.13;3.00;;;9.50;70.10;;;11.70;50.89;100105.81;5036350;28;20619;-63
2023/04/12 06:40:07;;;;;;;5.40;3.03;;;9.40;70.10;;;11.75;50.64;100104.22;5037103;28;20675;-65
2023/04/12 06:42:35;;;;;;;5.10;2.63;;;9.50;70.30;;;11.85;50.58;100088.84;5035949;28;20371;-63
2023/04/12 06:45:02;;;;;;;6.27;2.60;;;9.50;70.00;;;11.93;50.02;100088.66;5033574;28;20213;-62
2023/04/12 06:47:31;;;;;;;5.97;3.27;;;9.60;69.90;;;11.94;50.13;100078.91;5035008;28;20539;-63
2023/04/12 06:50:00;;;;;;;5.67;2.57;;;9.70;69.90;;;11.96;49.93;100069.81;5034147;28;20594;-63
2023/04/12 06:52:27;;;;;;;3.83;2.67;;;9.70;69.60;;;12.02;50.13;100069.03;5034571;28;20218;-65
2023/04/12 06:54:55;;;;;;;5.43;2.73;;;9.70;69.40;;;12.08;49.80;100059.47;5033475;28;20218;-62
2023/04/12 06:57:22;;;;;;;5.53;2.60;;;9.70;69.90;;;11.95;49.95;100056.81;5034579;28;20222;-66
2023/04/12 06:59:49;;;;;;;8.53;2.97;;;9.80;69.10;;;11.95;49.77;100047.09;5034111;28;20202;-63
2023/04/12 07:02:17;;;;;;;8.27;3.13;;;9.80;69.10;;;12.02;50.17;100057.66;5034643;28;20206;-62
2023/04/12 07:04:44;;;;;;;4.13;2.80;;;9.80;69.00;;;12.01;49.87;100046.28;5033052;28;20221;-64
2023/04/12 07:07:13;;;;;;;7.33;2.70;;;9.80;68.60;;;12.16;49.73;100036.38;5034641;28;20198;-65
2023/04/12 07:09:40;;;;;;;4.43;2.43;;;9.90;68.60;;;12.13;49.71;100039.41;5034639;28;20218;-63
2023/04/12 07:12:07;;;;;;;6.73;2.53;;;9.90;68.50;;;12.14;49.61;100030.47;5033054;28;20607;-63
2023/04/12 07:14:34;;;;;;;4.27;2.40;;;9.90;68.20;;;12.18;49.12;100041.44;5034155;28;20222;-64
2023/04/12 07:17:01;;;;;;;5.97;2.50;;;10.00;67.00;;;12.29;49.16;100027.63;5034677;28;20206;-63
2023/04/12 07:19:30;;;;;;;7.70;2.67;;;10.10;66.90;;;12.41;48.26;100030.50;5033950;28;20198;-66
2023/04/12 07:21:57;;;;;;;4.23;2.10;;;10.10;66.80;;;12.51;48.84;100015.03;5035103;28;20670;-64
2023/04/12 07:24:25;;;;;;;6.10;2.43;;;10.20;66.80;;;12.68;48.69;100016.22;5034130;28;20213;-63
2023/04/12 07:26:55;;;;;;;8.93;3.87;;;10.30;66.80;;;12.86;48.04;100003.19;5034396;28;20266;-60
2023/04/12 07:29:23;;;;;;;7.03;2.63;;;10.40;66.70;;;13.00;47.87;99999.50;5033082;28;20639;-61
2023/04/12 07:31:50;;;;;;;5.93;2.67;;;10.50;66.30;;;13.14;47.82;99995.84;5035011;28;20247;-65
2023/04/12 07:34:17;;;;;;;7.90;3.30;;;10.60;66.10;;;13.29;47.50;99992.91;5033807;28;20214;-63
2023/04/12 07:36:44;;;;;;;7.23;3.20;;;10.80;66.00;;;13.61;47.00;99985.81;5034129;28;20244;-64
2023/04/12 07:39:12;;;;;;;3.17;2.40;;;10.90;65.90;;;13.75;46.45;99982.06;5034397;28;20229;-62
2023/04/12 07:41:45;;;;;;;5.40;2.40;;;11.10;65.30;;;13.74;46.45;99975.19;5033961;28;20554;-62
2023/04/12 07:44:12;;;;;;;5.67;2.53;;;11.20;65.10;;;13.75;46.82;99976.78;5033038;28;20269;-63
2023/04/12 07:46:40;;;;;;;6.57;2.47;;;11.20;65.00;;;13.78;46.90;99971.06;5032224;28;20659;-62
2023/04/12 07:49:09;;;;;;;4.50;2.37;;;11.30;65.20;;;13.95;46.66;99972.19;5033635;28;20209;-64
2023/04/12 07:51:36;;;;;;;4.27;2.10;;;11.40;65.30;;;13.98;46.91;99955.84;5032804;28;20190;-61
2023/04/12 07:54:03;;;;;;;4.77;2.60;;;11.40;65.30;;;14.14;46.61;99961.41;5032641;28;20341;-64
2023/04/12 07:56:34;;;;;;;5.33;2.40;;;11.50;65.50;;;14.09;46.98;99955.16;5033877;28;20195;-63
2023/04/12 07:59:02;;;;;;;6.70;2.70;;;11.50;65.90;;;14.19;47.10;99947.56;5034486;28;20198;-62
2023/04/12 08:01:29;;;;;;;4.87;2.63;;;11.60;66.20;;;14.18;47.37;99940.63;5032785;28;20206;-64
2023/04/12 08:03:57;;;;;;;4.97;2.40;;;11.60;66.40;;;14.29;47.59;99947.84;5031548;28;20284;-63
2023/04/12 08:06:25;;;;;;;5.13;2.23;;;11.70;67.00;;;14.47;48.09;99950.56;5031921;28;20199;-63
2023/04/12 08:08:56;;;;;;;6.77;2.60;;;11.80;67.80;;;14.60;47.84;99944.31;5034798;28;20194;-62
2023/04/12 08:11:23;;;;;;;4.23;2.73;;;11.90;67.80;;;14.77;47.96;99955.94;5034439;28;20367;-64
2023/04/12 08:13:50;;;;;;;5.43;2.53;;;12.00;68.10;;;14.84;47.28;99935.50;5031152;28;20229;-68
2023/04/12 08:16:19;;;;;;;5.73;2.33;;;12.10;67.60;;;14.86;47.79;99936.88;5034448;28;20186;-64
2023/04/12 08:18:46;;;;;;;7.50;2.70;;;12.20;67.60;;;14.87;47.68;99935.88;5035853;28;20197;-64
2023/04/12 08:21:14;;;;;;;2.77;1.93;;;12.30;67.40;;;14.91;47.68;99931.72;5036698;28;20222;-63
2023/04/12 08:23:40;;;;;;;3.30;1.90;;;12.30;67.40;;;15.06;47.82;99927.88;5034898;28;20199;-64
2023/04/12 08:26:08;;;;;;;4.60;2.37;;;12.40;67.90;;;15.12;47.66;99927.00;5036647;28;20195;-63
2023/04/12 08:28:35;;;;;;;4.80;2.30;;;12.40;68.10;;;15.19;47.60;99933.03;5036243;28;20186;-62
2023/04/12 08:31:02;;;;;;;4.77;2.60;;;12.50;68.00;;;15.14;47.97;99930.25;5036531;28;20583;-61
2023/04/12 08:33:31;;;;;;;5.23;2.30;;;12.50;67.90;;;15.19;47.93;99919.78;5033401;28;20248;-62
2023/04/12 08:35:58;;;;;;;4.93;2.23;;;12.50;68.00;;;15.17;48.43;99919.16;5036615;28;20215;-64
2023/04/12 08:38:25;;;;;;;4.13;2.50;;;12.50;68.70;;;15.17;48.56;99919.16;5036728;28;20218;-63
2023/04/12 08:41:07;;;;;;;3.70;2.43;;;12.50;69.00;;;15.20;48.91;99918.72;5026134;28;20186;-62
2023/04/12 08:43:42;;;;;;;6.07;3.00;;;12.50;69.60;;;15.15;49.07;99905.34;5036394;28;20199;-61
2023/04/12 08:46:11;;;;;;;3.23;2.77;;;12.50;69.80;;;15.04;49.74;99914.06;5035112;28;20535;-64
2023/04/12 08:48:42;;;;;;;4.57;2.70;;;12.50;70.50;;;14.87;50.76;99913.84;5035118;28;20206;-63
2023/04/12 08:51:13;;;;;;;5.73;2.40;;;12.50;71.60;;;14.85;50.78;99911.44;5036099;28;20627;-63
2023/04/12 08:53:40;;;;;;;6.43;2.47;;;12.40;71.70;;;14.85;51.28;99906.13;5034604;28;20791;-67
2023/04/12 08:56:10;;;;;;;9.50;3.10;;;12.40;72.30;;;14.82;52.00;99906.56;5034322;28;20205;-63
2023/04/12 08:58:40;;;;;;;5.67;3.03;;;12.40;73.30;;;14.76;52.46;99902.16;5033714;28;20592;-63
2023/04/12 09:01:14;;;;;;;2.80;2.17;;;12.30;74.20;;;14.59;53.49;99901.16;5034805;28;20194;-64
2023/04/12 09:03:44;;;;;;;4.40;2.50;;;12.30;75.30;;;14.44;54.42;99898.06;5037028;28;20625;-64
2023/04/12 09:06:12;;;;;;;4.77;2.17;;;12.20;76.30;;;14.31;55.17;99903.47;5033213;28;20210;-63
2023/04/12 09:08:52;;;;;;;3.90;2.23;;;12.10;77.00;;;14.22;55.48;99894.97;5031083;28;20238;-63
2023/04/12 09:11:25;;;;;;;3.67;2.50;;;12.00;77.50;;;14.22;56.17;99891.53;5033433;28;20201;-62
2023/04/12 09:13:54;;;;;;;3.07;2.20;;;12.00;78.40;;;14.18;56.51;99883.22;5035116;28;20222;-63
2023/04/12 09:16:38;;;;;;;4.77;2.60;;;11.90;78.90;;;14.28;56.64;99885.38;5033663;28;20273;-63
2023/04/12 09:19:08;;;;;;;3.30;1.90;;;11.90;79.40;;;14.34;56.52;99873.09;5021973;28;20234;-65
2023/04/12 09:21:55;;;;;;;3.87;2.60;;;11.90;80.00;;;14.34;56.47;99876.56;5028252;28;20282;-64
2023/04/12 09:24:25;;;;;;;5.00;2.73;;;12.00;80.00;;;14.45;57.04;99875.03;5048500;28;20222;-66
2023/04/12 09:27:02;;;;;;;3.60;2.17;;;12.00;80.50;;;14.37;56.85;99854.94;5028449;28;20195;-64
2023/04/12 09:29:31;;;;;;;3.17;2.20;;;12.00;80.10;;;14.40;56.77;99864.28;5030231;28;20222;-63
2023/04/12 09:32:02;;;;;;;6.10;2.33;;;12.00;79.80;;;14.37;56.84;99860.25;5028078;28;20849;-64
2023/04/12 09:34:32;;;;;;;3.70;2.40;;;12.10;80.20;;;14.37;57.28;99849.66;5032937;28;20218;-65
2023/04/12 09:37:10;;;;;;;3.13;2.10;;;12.10;80.50;;;14.35;57.36;99841.13;5028983;28;20200;-65
2023/04/12 09:39:38;;;;;;;4.17;2.03;;;12.10;80.70;;;14.32;57.69;99838.09;5026137;28;20202;-65
2023/04/12 09:42:08;;;;;;;5.50;2.53;;;12.10;80.70;;;14.31;57.74;99833.84;5022077;28;20210;-63
2023/04/12 09:44:56;;;;;;;2.60;2.13;;;12.00;81.00;;;14.35;57.51;99833.19;5027588;28;20218;-63
2023/04/12 09:47:37;;;;;;;2.43;1.53;;;12.00;81.00;;;14.29;57.80;99830.59;5031851;28;20218;-62
2023/04/12 09:50:18;;;;;;;4.53;2.30;;;12.00;80.90;;;14.38;57.93;99824.78;5031321;28;20191;-63
2023/04/12 09:52:45;;;;;;;7.33;2.33;;;12.00;81.50;;;14.38;58.30;99824.78;5018213;28;20209;-63
2023/04/12 09:55:14;;;;;;;4.60;2.20;;;12.00;82.00;;;14.44;58.29;99813.31;5040500;28;20893;-64
2023/04/12 09:57:44;;;;;;;4.13;2.27;;;12.00;82.10;;;14.50;58.06;99825.66;5019949;28;20199;-64
2023/04/12 10:00:16;;;;;;;3.80;2.17;;;12.10;82.30;;;14.54;58.11;99821.56;5028981;28;20198;-67
2023/04/12 10:02:46;;;;;;;4.67;2.50;;;12.10;82.10;;;14.36;58.27;99818.91;5032387;28;20194;-62
2023/04/12 10:05:17;;;;;;;2.90;2.13;;;12.10;82.10;;;14.32;58.88;99820.38;5029724;28;20230;-62
2023/04/12 10:07:46;;;;;;;4.07;2.03;;;12.10;82.50;;;14.25;59.01;99817.78;5019981;28;20190;-64
2023/04/12 10:10:15;;;;;;;3.53;2.27;;;12.00;82.30;;;14.38;58.75;99805.47;5039666;28;20241;-64
2023/04/12 10:12:45;;;;;;;2.97;2.20;;;12.10;82.70;;;14.45;58.77;99809.66;5029127;28;20232;-63
2023/04/12 10:15:16;;;;;;;2.33;1.93;;;12.10;83.00;;;14.39;59.12;99805.22;5019372;28;20325;-66
2023/04/12 10:17:46;;;;;;;2.73;1.80;;;12.10;83.10;;;14.26;59.30;99808.00;5027430;28;20187;-65
2023/04/12 10:20:16;;;;;;;2.00;1.77;;;12.00;82.90;;;14.30;59.24;99795.97;5032764;28;20217;-65
2023/04/12 10:22:46;;;;;;;2.70;1.83;;;12.10;83.20;;;14.41;59.48;99803.16;5033102;28;20228;-64
2023/04/12 10:25:15;;;;;;;2.97;1.80;;;12.10;83.70;;;14.49;59.06;99800.22;5025068;28;20219;-62
2023/04/12 10:27:44;;;;;;;2.97;1.50;;;12.10;83.50;;;14.44;59.00;99797.44;5034102;28;20209;-66
2023/04/12 10:30:23;;;;;;;2.77;1.83;;;12.10;83.20;;;14.27;59.28;99801.69;5031458;28;20191;-65